createdAt,value
2022-09-20T00:01:33.668Z,5.00
2022-09-20T00:04:06.345Z,7.40
2022-09-20T00:13:13.097Z,8.17
2022-09-20T00:15:46.135Z,7.37
2022-09-20T00:18:13.727Z,7.17
2022-09-20T00:20:46.421Z,7.37
2022-09-20T00:23:13.786Z,7.60
2022-09-20T00:25:42.004Z,7.20
2022-09-20T00:28:11.126Z,6.87
2022-09-20T00:38:06.524Z,8.10
2022-09-20T00:40:33.482Z,8.07
2022-09-20T00:43:00.716Z,7.70
2022-09-20T00:45:29.561Z,9.40
2022-09-20T00:48:02.614Z,7.73
2022-09-20T00:50:37.566Z,9.17
2022-09-20T00:53:09.967Z,10.33
2022-09-20T01:00:50.221Z,10.40
2022-09-20T01:03:22.325Z,11.17
2022-09-20T01:05:51.034Z,10.80
2022-09-20T01:08:19.154Z,11.40
2022-09-20T01:10:46.627Z,11.87
2022-09-20T01:13:14.806Z,11.73
2022-09-20T01:15:44.904Z,12.50
2022-09-20T01:18:14.525Z,11.33
2022-09-20T01:26:14.854Z,11.97
2022-09-20T01:28:49.284Z,10.40
2022-09-20T01:31:23.635Z,12.23
2022-09-20T01:33:54.344Z,11.20
2022-09-20T01:36:26.336Z,11.10
2022-09-20T01:39:04.685Z,10.30
2022-09-20T01:41:36.384Z,10.17
2022-09-20T01:52:20.116Z,9.40
2022-09-20T01:55:13.897Z,7.63
2022-09-20T01:58:09.836Z,7.53
2022-09-20T02:00:58.814Z,7.30
2022-09-20T02:04:08.414Z,7.93
2022-09-20T02:06:50.377Z,7.20
2022-09-20T02:14:50.366Z,9.53
2022-09-20T02:17:25.804Z,10.47
2022-09-20T02:20:12.514Z,10.40
2022-09-20T02:22:51.406Z,9.40
2022-09-20T02:25:46.388Z,10.63
2022-09-20T02:28:25.825Z,8.23
2022-09-20T02:31:03.144Z,9.47
2022-09-20T02:39:00.913Z,9.30
2022-09-20T02:42:03.751Z,7.50
2022-09-20T02:44:53.036Z,8.33
2022-09-20T02:47:29.088Z,7.40
2022-09-20T02:50:13.144Z,5.87
2022-09-20T02:52:52.136Z,8.27
2022-09-20T02:55:32.434Z,7.87
2022-09-20T03:03:14.596Z,9.13
2022-09-20T03:05:52.354Z,6.70
2022-09-20T03:08:31.926Z,7.20
2022-09-20T03:11:12.486Z,6.47
2022-09-20T03:13:55.194Z,7.53
2022-09-20T03:16:33.680Z,6.30
2022-09-20T03:19:14.027Z,6.03
2022-09-20T03:29:55.644Z,7.83
2022-09-20T03:32:36.304Z,6.43
2022-09-20T03:35:18.426Z,8.27
2022-09-20T03:38:00.464Z,5.93
2022-09-20T03:40:54.678Z,7.27
2022-09-20T03:43:33.265Z,8.43
2022-09-20T03:46:15.790Z,5.77
2022-09-20T03:54:26.787Z,6.07
2022-09-20T03:57:19.364Z,7.33
2022-09-20T04:00:04.156Z,7.63
2022-09-20T04:03:01.994Z,6.33
2022-09-20T04:05:40.458Z,10.30
2022-09-20T04:08:20.868Z,11.90
2022-09-20T04:16:15.180Z,13.00
2022-09-20T04:18:48.836Z,14.20
2022-09-20T04:21:23.257Z,13.70
2022-09-20T04:23:56.826Z,15.60
2022-09-20T04:26:28.026Z,17.10
2022-09-20T04:29:02.598Z,15.37
2022-09-20T04:31:40.984Z,16.57
2022-09-20T04:34:16.685Z,17.83
2022-09-20T04:42:37.672Z,21.03
2022-09-20T04:45:42.680Z,15.63
2022-09-20T04:49:06.805Z,15.23
2022-09-20T04:52:11.645Z,15.23
2022-09-20T04:55:02.996Z,16.07
2022-09-20T04:58:04.126Z,15.07
2022-09-20T05:04:23.174Z,15.60
2022-09-20T05:07:27.229Z,14.87
2022-09-20T05:10:30.797Z,13.07
2022-09-20T05:13:15.645Z,13.73
2022-09-20T05:15:55.347Z,13.30
2022-09-20T05:18:52.673Z,13.03
2022-09-20T05:24:21.436Z,13.23
2022-09-20T05:27:02.963Z,13.17
2022-09-20T05:29:41.647Z,13.97
2022-09-20T05:32:16.627Z,11.73
2022-09-20T05:34:50.754Z,12.97
2022-09-20T05:37:32.587Z,12.70
2022-09-20T05:40:12.601Z,15.50
2022-09-20T05:47:53.826Z,16.10
2022-09-20T05:50:44.904Z,14.90
2022-09-20T05:53:47.384Z,15.03
2022-09-20T05:56:28.726Z,16.30
2022-09-20T05:59:15.503Z,16.00
2022-09-20T06:01:48.935Z,15.27
2022-09-20T06:04:24.527Z,18.00
2022-09-20T06:14:42.436Z,16.30
2022-09-20T06:17:23.260Z,14.93
2022-09-20T06:20:00.907Z,15.17
2022-09-20T06:22:32.026Z,16.20
2022-09-20T06:25:05.726Z,14.93
2022-09-20T06:27:42.219Z,14.47
2022-09-20T06:33:00.724Z,15.03
2022-09-20T06:35:36.435Z,14.70
2022-09-20T06:38:36.694Z,14.50
2022-09-20T06:41:22.684Z,13.60
2022-09-20T06:43:50.827Z,15.27
2022-09-20T06:46:18.748Z,15.50
2022-09-20T06:48:48.834Z,13.07
2022-09-20T06:56:27.834Z,13.37
2022-09-20T06:58:55.214Z,13.27
2022-09-20T07:01:30.014Z,12.73
2022-09-20T07:03:58.721Z,12.80
2022-09-20T07:06:28.302Z,12.00
2022-09-20T07:08:55.870Z,12.20
2022-09-20T07:11:25.181Z,10.53
2022-09-20T07:13:55.410Z,9.53
2022-09-20T07:21:24.203Z,8.77
2022-09-20T07:23:53.450Z,9.20
2022-09-20T07:26:26.110Z,7.33
2022-09-20T07:28:55.203Z,6.90
2022-09-20T07:31:26.830Z,9.30
2022-09-20T07:33:55.026Z,6.53
2022-09-20T07:36:25.161Z,6.67
2022-09-20T07:38:54.309Z,5.77
2022-09-20T07:46:27.144Z,6.47
2022-09-20T07:48:55.046Z,4.87
2022-09-20T07:51:22.391Z,4.90
2022-09-20T07:53:49.786Z,6.37
2022-09-20T07:56:18.007Z,6.00
2022-09-20T07:58:48.722Z,4.53
2022-09-20T08:01:20.429Z,4.00
2022-09-20T08:03:48.696Z,3.80
2022-09-20T08:11:02.480Z,3.70
2022-09-20T08:16:22.068Z,3.40
2022-09-20T08:18:51.578Z,4.90
2022-09-20T08:21:19.066Z,5.20
2022-09-20T08:23:47.910Z,3.67
2022-09-20T08:26:20.043Z,3.37
2022-09-20T08:33:54.597Z,4.07
2022-09-20T08:36:24.104Z,2.87
2022-09-20T08:41:47.445Z,3.63
2022-09-20T08:44:19.403Z,4.50
2022-09-20T08:46:53.366Z,3.00
2022-09-20T08:49:29.342Z,3.33
2022-09-20T08:52:01.923Z,3.33
2022-09-20T08:59:34.959Z,3.57
2022-09-20T09:02:28.298Z,4.10
2022-09-20T09:04:56.448Z,3.37
2022-09-20T09:07:26.360Z,3.97
2022-09-20T09:09:56.068Z,3.47
2022-09-20T09:12:26.579Z,2.70
2022-09-20T09:14:59.934Z,2.93
2022-09-20T09:20:21.362Z,3.47
2022-09-20T09:22:59.191Z,3.63
2022-09-20T09:25:32.922Z,3.17
2022-09-20T09:28:02.779Z,3.90
2022-09-20T09:30:33.346Z,4.17
2022-09-20T09:33:27.665Z,3.47
2022-09-20T09:39:37.619Z,3.83
2022-09-20T09:42:21.266Z,3.70
2022-09-20T09:44:49.906Z,3.23
2022-09-20T09:47:28.376Z,2.40
2022-09-20T09:50:00.295Z,2.50
2022-09-20T09:52:32.994Z,3.57
2022-09-20T09:55:05.468Z,2.73
2022-09-20T10:01:57.011Z,3.17
2022-09-20T10:04:34.284Z,2.80
2022-09-20T10:07:11.514Z,2.30
2022-09-20T10:10:00.506Z,2.70
2022-09-20T10:12:51.626Z,3.10
2022-09-20T10:15:39.964Z,2.53
2022-09-20T10:18:31.324Z,2.23
2022-09-20T10:26:28.407Z,1.57
2022-09-20T10:29:07.856Z,1.97
2022-09-20T10:31:47.827Z,2.33
2022-09-20T10:34:31.260Z,3.03
2022-09-20T10:37:00.494Z,2.17
2022-09-20T10:39:32.935Z,1.77
2022-09-20T10:42:33.104Z,2.23
2022-09-20T10:50:19.531Z,1.10
2022-09-20T10:53:03.595Z,1.00
2022-09-20T10:55:42.114Z,1.70
2022-09-20T10:58:46.953Z,1.53
2022-09-20T11:01:24.289Z,2.30
2022-09-20T11:04:16.614Z,1.40
2022-09-20T11:11:21.214Z,1.73
2022-09-20T11:13:57.958Z,1.30
2022-09-20T11:16:34.742Z,1.30
2022-09-20T11:19:09.464Z,1.40
2022-09-20T11:21:44.693Z,1.53
2022-09-20T11:24:25.414Z,1.63
2022-09-20T11:26:57.178Z,1.30
2022-09-20T11:29:32.164Z,1.53
2022-09-20T11:37:02.686Z,1.70
2022-09-20T11:39:43.169Z,1.63
2022-09-20T11:42:27.537Z,1.60
2022-09-20T11:44:58.852Z,1.77
2022-09-20T11:47:56.018Z,1.27
2022-09-20T11:51:33.705Z,1.00
2022-09-20T12:03:12.497Z,1.00
2022-09-20T12:05:42.081Z,1.37
2022-09-20T12:08:24.276Z,0.90
2022-09-20T12:11:07.595Z,1.20
2022-09-20T12:13:39.564Z,0.60
2022-09-20T12:16:12.949Z,0.53
2022-09-20T12:19:05.692Z,0.50
2022-09-20T12:24:46.070Z,1.00
2022-09-20T12:27:40.131Z,0.90
2022-09-20T12:30:17.957Z,0.80
2022-09-20T12:32:56.188Z,0.90
2022-09-20T12:36:19.384Z,0.70
2022-09-20T12:38:59.851Z,0.80
2022-09-20T12:44:38.906Z,0.93
2022-09-20T12:47:24.134Z,0.80
2022-09-20T12:50:14.837Z,1.27
2022-09-20T12:52:56.354Z,1.00
2022-09-20T12:55:45.463Z,1.33
2022-09-20T12:58:33.883Z,1.10
2022-09-20T13:06:36.829Z,1.33
2022-09-20T13:09:08.266Z,1.60
2022-09-20T13:12:06.486Z,1.67
2022-09-20T13:14:41.389Z,1.50
2022-09-20T13:17:25.636Z,1.57
2022-09-20T13:20:23.756Z,1.53
2022-09-20T13:22:57.051Z,1.23
2022-09-20T13:30:41.506Z,1.50
2022-09-20T13:33:23.266Z,1.83
2022-09-20T13:35:53.996Z,1.80
2022-09-20T13:38:25.598Z,2.03
2022-09-20T13:41:01.944Z,2.23
2022-09-20T13:43:34.139Z,1.40
2022-09-20T13:46:09.934Z,2.27
2022-09-20T13:53:44.484Z,2.00
2022-09-20T13:56:17.412Z,1.57
2022-09-20T13:58:58.452Z,1.67
2022-09-20T14:01:30.952Z,1.40
2022-09-20T14:04:05.422Z,1.60
2022-09-20T14:06:36.214Z,1.67
2022-09-20T14:09:11.494Z,1.70
2022-09-20T14:11:40.634Z,1.40
2022-09-20T14:21:01.244Z,1.80
2022-09-20T14:23:51.377Z,1.57
2022-09-20T14:26:37.566Z,1.20
2022-09-20T14:33:00.694Z,1.13
2022-09-20T14:35:36.286Z,1.00
2022-09-20T14:38:11.074Z,1.00
2022-09-20T14:40:45.455Z,1.27
2022-09-20T14:48:33.991Z,0.80
2022-09-20T14:51:24.084Z,1.03
2022-09-20T14:54:21.355Z,0.77
2022-09-20T14:57:06.884Z,1.10
2022-09-20T14:59:42.954Z,1.00
2022-09-20T15:02:16.081Z,0.70
2022-09-20T15:04:55.394Z,1.77
2022-09-20T15:07:25.751Z,1.13
2022-09-20T15:15:03.477Z,1.13
2022-09-20T15:17:33.995Z,1.23
2022-09-20T15:22:51.456Z,0.80
2022-09-20T15:25:47.843Z,1.10
2022-09-20T15:28:50.282Z,0.80
2022-09-20T15:31:19.624Z,1.03
2022-09-20T15:34:04.154Z,1.00
2022-09-20T15:41:54.275Z,1.60
2022-09-20T15:44:32.071Z,1.23
2022-09-20T15:46:59.742Z,1.30
2022-09-20T15:49:27.152Z,1.50
2022-09-20T15:51:54.290Z,1.27
2022-09-20T15:54:21.814Z,1.07
2022-09-20T15:56:51.416Z,1.10
2022-09-20T16:04:16.760Z,1.10
2022-09-20T16:06:48.685Z,1.50
2022-09-20T16:09:18.381Z,1.27
2022-09-20T16:11:45.612Z,1.97
2022-09-20T16:14:13.432Z,1.90
2022-09-20T16:16:41.428Z,1.30
2022-09-20T16:19:20.248Z,1.50
2022-09-20T16:21:53.747Z,1.33
2022-09-20T16:29:30.195Z,1.17
2022-09-20T16:31:59.234Z,1.70
2022-09-20T16:34:31.081Z,1.17
2022-09-20T16:37:00.165Z,1.57
2022-09-20T16:39:30.742Z,0.97
2022-09-20T16:42:05.314Z,1.67
2022-09-20T16:44:35.393Z,1.30
2022-09-20T16:47:03.290Z,1.20
2022-09-20T16:54:39.007Z,1.10
2022-09-20T16:57:08.514Z,1.50
2022-09-20T16:59:36.613Z,1.07
2022-09-20T17:02:04.426Z,1.20
2022-09-20T17:04:32.102Z,1.10
2022-09-20T17:07:03.883Z,1.60
2022-09-20T17:09:31.165Z,2.00
2022-09-20T17:14:40.266Z,2.00
2022-09-20T17:17:07.560Z,2.00
2022-09-20T17:19:35.664Z,2.03
2022-09-20T17:22:03.917Z,2.30
2022-09-20T17:24:33.584Z,1.60
2022-09-20T17:27:03.884Z,1.90
2022-09-20T17:29:31.390Z,1.47
2022-09-20T17:38:55.297Z,2.20
2022-09-20T17:41:24.364Z,2.27
2022-09-20T17:43:57.412Z,1.93
2022-09-20T17:46:31.501Z,2.33
2022-09-20T17:49:03.404Z,1.90
2022-09-20T17:51:32.611Z,2.27
2022-09-20T17:54:03.496Z,2.07
2022-09-20T18:01:39.110Z,1.70
2022-09-20T18:04:27.955Z,1.33
2022-09-20T18:06:59.534Z,1.57
2022-09-20T18:09:31.380Z,1.67
2022-09-20T18:12:01.426Z,1.60
2022-09-20T18:14:32.066Z,1.30
2022-09-20T18:17:01.578Z,2.43
2022-09-20T18:24:23.185Z,2.00
2022-09-20T18:26:50.976Z,1.53
2022-09-20T18:29:18.891Z,1.27
2022-09-20T18:31:48.560Z,1.50
2022-09-20T18:34:17.997Z,1.10
2022-09-20T18:36:47.846Z,1.10
2022-09-20T18:39:15.260Z,1.17
2022-09-20T18:47:04.536Z,1.00
2022-09-20T18:49:35.237Z,1.37
2022-09-20T18:52:04.987Z,1.00
2022-09-20T18:54:32.887Z,1.30
2022-09-20T18:57:01.545Z,1.30
2022-09-20T18:59:29.849Z,1.30
2022-09-20T19:08:06.158Z,1.40
2022-09-20T19:10:42.155Z,1.30
2022-09-20T19:13:26.044Z,0.80
2022-09-20T19:16:22.742Z,1.20
2022-09-20T19:19:17.384Z,1.40
2022-09-20T19:21:57.614Z,0.90
2022-09-20T19:29:50.712Z,1.87
2022-09-20T19:32:22.112Z,1.90
2022-09-20T19:34:53.434Z,1.37
2022-09-20T19:37:29.945Z,1.40
2022-09-20T19:40:13.581Z,1.60
2022-09-20T19:42:53.006Z,2.17
2022-09-20T19:48:14.482Z,1.57
2022-09-20T19:50:45.005Z,1.77
2022-09-20T19:53:14.704Z,1.87
2022-09-20T19:55:48.381Z,1.70
2022-09-20T19:58:17.256Z,1.47
2022-09-20T20:00:46.313Z,1.57
2022-09-20T20:03:19.125Z,1.60
2022-09-20T20:08:54.429Z,1.07
2022-09-20T20:11:33.277Z,1.70
2022-09-20T20:14:11.886Z,1.80
2022-09-20T20:16:50.082Z,1.70
2022-09-20T20:19:36.881Z,1.87
2022-09-20T20:22:14.657Z,2.03
2022-09-20T20:24:49.667Z,2.33
2022-09-20T20:32:22.876Z,2.50
2022-09-20T20:34:50.577Z,2.00
2022-09-20T20:37:18.331Z,4.33
2022-09-20T20:39:46.332Z,2.00
2022-09-20T20:42:14.610Z,2.73
2022-09-20T20:44:43.073Z,2.83
2022-09-20T20:47:11.028Z,2.30
2022-09-20T20:53:27.042Z,4.40
2022-09-20T20:56:00.873Z,4.73
2022-09-20T20:58:34.665Z,3.20
2022-09-20T21:01:07.474Z,3.20
2022-09-20T21:03:35.756Z,3.23
2022-09-20T21:06:05.882Z,3.60
2022-09-20T21:08:36.117Z,3.83
2022-09-20T21:14:26.544Z,3.53
2022-09-20T21:16:54.674Z,3.77
2022-09-20T21:19:23.571Z,3.63
2022-09-20T21:21:50.987Z,4.03
2022-09-20T21:24:18.245Z,3.50
2022-09-20T21:26:46.406Z,3.97
2022-09-20T21:29:15.583Z,3.47
2022-09-20T21:36:49.926Z,4.00
2022-09-20T21:39:17.554Z,3.97
2022-09-20T21:41:48.214Z,5.37
2022-09-20T21:44:16.686Z,3.83
2022-09-20T21:46:44.383Z,3.20
2022-09-20T21:49:13.645Z,4.07
2022-09-20T21:51:42.772Z,4.50
2022-09-20T21:59:11.756Z,4.33
2022-09-20T22:01:40.679Z,4.50
2022-09-20T22:04:09.446Z,4.00
2022-09-20T22:06:38.156Z,3.97
2022-09-20T22:09:07.925Z,3.53
2022-09-20T22:11:38.287Z,3.33
2022-09-20T22:14:06.568Z,3.10
2022-09-20T22:19:23.955Z,3.30
2022-09-20T22:21:51.553Z,3.17
2022-09-20T22:24:18.735Z,2.87
2022-09-20T22:26:47.712Z,3.43
2022-09-20T22:29:16.454Z,3.83
2022-09-20T22:31:45.972Z,3.50
2022-09-20T22:34:15.514Z,4.40
2022-09-20T22:41:47.385Z,5.50
2022-09-20T22:44:14.691Z,6.13
2022-09-20T22:46:42.613Z,5.03
2022-09-20T22:49:09.916Z,5.47
2022-09-20T22:51:39.617Z,5.57
2022-09-20T22:54:12.058Z,4.87
2022-09-20T22:56:41.894Z,4.67
2022-09-20T22:59:11.945Z,4.87
2022-09-20T23:06:47.278Z,7.90
2022-09-20T23:09:16.256Z,6.70
2022-09-20T23:11:43.936Z,7.33
2022-09-20T23:14:13.606Z,7.40
2022-09-20T23:16:42.073Z,7.03
2022-09-20T23:19:10.268Z,8.13
2022-09-20T23:21:38.584Z,8.20
2022-09-20T23:29:13.273Z,5.37
2022-09-20T23:31:43.671Z,5.97
2022-09-20T23:34:13.736Z,6.67
2022-09-20T23:36:41.885Z,5.00
2022-09-20T23:39:10.377Z,5.57
2022-09-20T23:41:38.236Z,4.47
2022-09-20T23:44:06.884Z,4.63
2022-09-20T23:46:36.934Z,4.20
2022-09-20T23:51:46.875Z,3.63
2022-09-20T23:54:14.187Z,3.83
2022-09-20T23:56:42.174Z,2.20
2022-09-20T23:59:10.276Z,1.67
